Time;durP1;ratioP1;P1;durP2;ratioP2;P2;SDS_P1;SDS_P2;PMS_P1;PMS_P2;Temp;Humidity;BMP_temperature;BMP_pressure;BME280_temperature;BME280_humidity;BME280_pressure;Samples;Min_cycle;Max_cycle;Signal;HPM_P1;HPM_P2
2023/03/10 00:01:20;;;;;;;6.40;5.30;;;;;;;7.78;100.00;97021.25;6218224;23;20000;-96
2023/03/10 00:03:49;;;;;;;6.10;5.03;;;;;;;7.74;100.00;97019.16;6243016;23;20336;-95
2023/03/10 00:06:20;;;;;;;5.85;4.45;;;;;;;7.48;100.00;97012.28;6242617;23;20013;-95
2023/03/10 00:08:46;;;;;;;4.25;3.80;;;;;;;7.47;100.00;97046.59;6216481;23;20005;-95
2023/03/10 00:11:12;;;;;;;6.00;5.00;;;;;;;7.17;100.00;97048.69;6215469;23;20031;-95
2023/03/10 00:13:38;;;;;;;4.30;3.90;;;;;;;6.67;100.00;97036.41;6214347;23;20066;-96
2023/03/10 00:16:07;;;;;;;4.38;3.85;;;;;;;6.79;100.00;97060.06;6214958;23;20009;-94
2023/03/10 00:18:33;;;;;;;4.82;4.05;;;;;;;6.40;100.00;97056.03;6216558;23;19996;-94
2023/03/10 00:20:59;;;;;;;4.53;3.83;;;;;;;6.37;100.00;97050.41;6217033;23;20005;-93
2023/03/10 00:23:28;;;;;;;7.38;4.07;;;;;;;6.21;100.00;97074.06;6243451;23;20343;-95
2023/03/10 00:25:58;;;;;;;5.00;4.25;;;;;;;6.08;100.00;97066.75;6242356;23;20015;-95
2023/03/10 00:28:25;;;;;;;5.88;4.70;;;;;;;5.79;100.00;97071.97;6217305;23;20001;-95
2023/03/10 00:31:03;;;;;;;5.28;4.63;;;;;;;5.82;100.00;97061.44;6241456;23;20000;-95
2023/03/10 00:33:30;;;;;;;6.60;4.60;;;;;;;5.88;100.00;97066.00;6217141;23;20028;-95
2023/03/10 00:36:03;;;;;;;6.10;4.70;;;;;;;5.68;100.00;97115.63;6217632;23;20008;-95
2023/03/10 00:38:28;;;;;;;6.43;5.30;;;;;;;5.82;100.00;97132.28;6217387;23;20040;-95
2023/03/10 00:41:02;;;;;;;6.88;5.97;;;;;;;5.58;100.00;97125.88;6216630;23;20001;-93
2023/03/10 00:43:28;;;;;;;7.32;5.95;;;;;;;5.39;100.00;97157.44;6217542;23;20431;-94
2023/03/10 00:45:54;;;;;;;7.47;6.13;;;;;;;5.25;100.00;97147.63;6217075;23;20011;-94
2023/03/10 00:48:20;;;;;;;6.85;6.03;;;;;;;5.10;100.00;97148.03;6217610;23;20059;-95
2023/03/10 00:50:46;;;;;;;5.95;4.93;;;;;;;4.97;100.00;97137.25;6216916;23;20005;-94
2023/03/10 00:53:11;;;;;;;8.55;5.82;;;;;;;5.09;100.00;97141.28;6216728;23;20020;-95
2023/03/10 00:55:37;;;;;;;6.07;4.97;;;;;;;4.98;100.00;97154.22;6216756;23;20012;-95
2023/03/10 00:58:02;;;;;;;6.32;5.13;;;;;;;4.65;100.00;97140.84;6217287;23;20008;-96
2023/03/10 01:00:28;;;;;;;6.80;5.38;;;;;;;4.83;100.00;97160.63;6217606;23;20001;-95
2023/03/10 01:02:53;;;;;;;6.60;5.15;;;;;;;4.80;100.00;97163.47;6217292;23;20004;-94
2023/03/10 01:05:19;;;;;;;9.45;6.25;;;;;;;4.62;100.00;97153.88;6217476;23;20359;-95
2023/03/10 01:07:47;;;;;;;6.32;5.43;;;;;;;4.45;100.00;97154.53;6242136;23;20486;-95
2023/03/10 01:10:18;;;;;;;6.50;5.38;;;;;;;4.52;100.00;97185.47;6217213;23;20000;-95
2023/03/10 01:12:44;;;;;;;6.22;5.25;;;;;;;4.62;100.00;97202.41;6242456;23;20493;-95
2023/03/10 01:15:11;;;;;;;7.47;5.90;;;;;;;4.62;100.00;97197.31;6216709;23;20005;-95
2023/03/10 01:17:37;;;;;;;6.97;5.55;;;;;;;4.55;100.00;97192.84;6216918;23;20423;-94
2023/03/10 01:20:07;;;;;;;5.72;5.07;;;;;;;4.44;100.00;97170.78;6216606;23;20009;-95
2023/03/10 01:22:32;;;;;;;6.00;5.03;;;;;;;4.55;100.00;97191.09;6216145;23;20035;-96
2023/03/10 01:24:58;;;;;;;6.85;5.70;;;;;;;4.74;100.00;97217.66;6215874;23;20424;-95
2023/03/10 01:27:23;;;;;;;7.28;5.47;;;;;;;4.08;100.00;97166.09;6216084;23;20001;-94
2023/03/10 01:29:49;;;;;;;6.68;5.18;;;;;;;4.33;100.00;97186.19;6241744;23;20011;-95
2023/03/10 01:32:15;;;;;;;7.20;5.45;;;;;;;4.16;100.00;97167.19;6216095;23;20011;-95
2023/03/10 01:34:41;;;;;;;7.53;5.70;;;;;;;4.16;100.00;97170.53;6216302;23;20012;-95
2023/03/10 01:37:06;;;;;;;9.20;5.97;;;;;;;3.99;100.00;97161.75;6216235;23;20475;-95
2023/03/10 01:39:32;;;;;;;5.65;4.53;;;;;;;4.24;100.00;97196.25;6241435;23;20005;-96
2023/03/10 01:41:59;;;;;;;6.45;5.05;;;;;;;3.97;100.00;97178.13;6243175;23;20439;-94
2023/03/10 01:44:27;;;;;;;6.82;5.10;;;;;;;4.06;100.00;97197.78;6219251;23;20016;-94
2023/03/10 01:46:54;;;;;;;6.45;4.75;;;;;;;4.01;100.00;97199.91;6245956;23;20133;-95
2023/03/10 01:49:25;;;;;;;6.70;5.40;;;;;;;4.03;100.00;97234.56;6219599;23;20071;-96
2023/03/10 01:52:03;;;;;;;6.47;4.93;;;;;;;3.83;100.00;97208.13;6220455;23;20016;-95
2023/03/10 01:54:37;;;;;;;6.72;4.95;;;;;;;3.97;100.00;97241.91;6221795;23;20008;-94
2023/03/10 01:57:06;;;;;;;6.22;5.07;;;;;;;3.69;100.00;97205.91;6220135;23;20005;-95
2023/03/10 01:59:36;;;;;;;6.00;4.85;;;;;;;3.69;100.00;97211.00;6219016;23;20367;-95
2023/03/10 02:02:02;;;;;;;7.78;5.40;;;;;;;3.64;100.00;97228.41;6219577;23;20378;-95
2023/03/10 02:04:47;;;;;;;7.07;5.03;;;;;;;3.93;100.00;97238.00;6245006;23;20012;-94
2023/03/10 02:07:17;;;;;;;5.90;4.93;;;;;;;3.93;100.00;97235.44;6218322;23;20016;-94
2023/03/10 02:09:45;;;;;;;5.63;4.60;;;;;;;3.66;100.00;97236.75;6218926;23;20009;-94
2023/03/10 02:12:20;;;;;;;4.70;3.58;;;;;;;3.80;100.00;97258.56;6219782;23;20000;-94
2023/03/10 02:14:48;;;;;;;7.05;4.90;;;;;;;3.78;100.00;97253.63;6217820;23;20016;-95
2023/03/10 02:17:18;;;;;;;4.43;3.53;;;;;;;3.78;100.00;97258.72;6216326;23;20016;-96
2023/03/10 02:19:58;;;;;;;4.40;3.28;;;;;;;3.84;100.00;97276.06;6241823;23;20016;-94
2023/03/10 02:22:24;;;;;;;3.60;2.90;;;;;;;3.67;100.00;97274.06;6216873;23;20024;-95
2023/03/10 02:25:24;;;;;;;4.38;3.55;;;;;;;3.65;100.00;97301.44;6218645;23;20008;-96
2023/03/10 02:27:51;;;;;;;9.35;3.95;;;;;;;3.72;100.00;97307.66;6237186;23;20001;-96
2023/03/10 02:30:20;;;;;;;4.82;3.80;;;;;;;3.66;100.00;97292.88;6216531;23;20000;-95
2023/03/10 02:32:53;;;;;;;5.03;3.65;;;;;;;3.67;100.00;97281.72;6216741;23;20004;-95
2023/03/10 02:35:19;;;;;;;4.28;3.53;;;;;;;3.71;100.00;97290.75;6217124;23;20007;-95
2023/03/10 02:37:44;;;;;;;4.03;3.30;;;;;;;3.58;100.00;97279.91;6217141;23;20009;-96
2023/03/10 02:40:44;;;;;;;5.35;4.15;;;;;;;3.55;100.00;97311.53;6242253;23;20005;-95
2023/03/10 02:43:13;;;;;;;5.15;4.25;;;;;;;3.83;100.00;97334.88;6220462;23;20415;-96
2023/03/10 02:45:43;;;;;;;4.95;3.95;;;;;;;3.52;100.00;97300.78;6241304;23;20004;-95
2023/03/10 02:48:11;;;;;;;4.85;4.07;;;;;;;3.54;100.00;97298.94;6216950;23;20092;-96
2023/03/10 02:50:46;;;;;;;4.75;3.85;;;;;;;3.86;100.00;97349.94;6216461;23;20004;-96
2023/03/10 02:53:28;;;;;;;4.10;3.40;;;;;;;3.86;100.00;97376.25;6216671;23;20004;-96
2023/03/10 02:55:55;;;;;;;3.83;3.22;;;;;;;3.76;100.00;97354.16;6217243;23;20008;-96
2023/03/10 02:58:25;;;;;;;4.03;3.45;;;;;;;3.70;100.00;97364.81;6218234;23;20084;-96
2023/03/10 03:00:57;;;;;;;3.67;2.92;;;;;;;3.57;100.00;97363.25;6218602;23;20000;-95
2023/03/10 03:03:23;;;;;;;3.50;2.97;;;;;;;3.58;100.00;97371.69;6218083;23;20015;-96
2023/03/10 03:05:52;;;;;;;3.08;2.78;;;;;;;3.67;100.00;97377.81;6218576;23;20004;-95
2023/03/10 03:08:20;;;;;;;3.00;2.70;;;;;;;3.87;100.00;97400.03;6242414;23;20030;-95
2023/03/10 03:10:46;;;;;;;4.00;2.95;;;;;;;3.50;100.00;97384.25;6217117;23;20071;-95
2023/03/10 03:13:12;;;;;;;3.05;2.75;;;;;;;3.45;100.00;97371.03;6217263;23;20005;-95
2023/03/10 03:15:38;;;;;;;3.40;2.85;;;;;;;3.46;100.00;97390.50;6217065;23;20009;-95
2023/03/10 03:18:04;;;;;;;3.33;2.70;;;;;;;3.51;100.00;97414.72;6217397;23;20518;-96
2023/03/10 03:20:31;;;;;;;3.33;3.03;;;;;;;3.60;100.00;97433.59;6218639;23;20035;-95
2023/03/10 03:22:58;;;;;;;3.10;2.80;;;;;;;3.55;100.00;97412.75;6219434;23;20005;-95
2023/03/10 03:25:26;;;;;;;3.42;3.08;;;;;;;3.61;100.00;97468.38;6217260;23;20313;-96
2023/03/10 03:27:52;;;;;;;3.40;3.10;;;;;;;3.40;100.00;97456.31;6216568;23;20013;-96
2023/03/10 03:30:24;;;;;;;3.13;2.83;;;;;;;3.56;100.00;97465.34;6241912;23;20008;-95
2023/03/10 03:32:50;;;;;;;;;;;;;;;3.62;100.00;97486.09;6216875;23;20004;-95
2023/03/10 03:35:18;;;;;;;2.50;2.17;;;;;;;3.28;100.00;97441.97;6216551;23;19958;-95
2023/03/10 03:37:46;;;;;;;2.88;2.38;;;;;;;3.33;100.00;97479.84;6217182;23;20008;-95
2023/03/10 03:40:13;;;;;;;2.50;2.30;;;;;;;3.52;100.00;97520.88;6241620;23;20012;-95
2023/03/10 03:42:40;;;;;;;2.53;2.33;;;;;;;3.34;100.00;97501.84;6217511;23;19997;-96
2023/03/10 03:45:11;;;;;;;3.10;2.80;;;;;;;3.30;100.00;97508.94;6216496;23;20439;-96
2023/03/10 03:47:37;;;;;;;2.65;2.42;;;;;;;3.32;100.00;97503.75;6217281;23;20465;-96
2023/03/10 03:50:04;;;;;;;2.92;2.63;;;;;;;3.39;100.00;97508.25;6216984;23;20092;-94
2023/03/10 03:52:30;;;;;;;2.35;2.15;;;;;;;3.47;100.00;97522.16;6217348;23;20036;-95
2023/03/10 03:54:56;;;;;;;2.42;2.22;;;;;;;3.29;100.00;97520.06;6219441;23;20002;-95
2023/03/10 03:57:23;;;;;;;2.47;2.28;;;;;;;3.28;100.00;97533.72;6220014;23;20082;-95
2023/03/10 03:59:49;;;;;;;2.33;2.13;;;;;;;3.30;100.00;97531.88;6220838;23;20044;-95
2023/03/10 04:02:17;;;;;;;2.90;2.50;;;;;;;3.28;100.00;97532.91;6220468;23;20438;-95
2023/03/10 04:04:43;;;;;;;1.98;1.88;;;;;;;3.39;100.00;97545.66;6246325;23;20008;-95
2023/03/10 04:07:09;;;;;;;2.92;2.45;;;;;;;3.37;100.00;97543.25;6246580;23;20011;-95
2023/03/10 04:09:34;;;;;;;2.33;2.13;;;;;;;3.38;100.00;97565.25;6220924;23;20039;-94
2023/03/10 04:12:00;;;;;;;4.07;2.00;;;;;;;3.42;100.00;97587.06;6219721;23;20087;-95
2023/03/10 04:14:31;;;;;;;2.40;2.20;;;;;;;3.25;100.00;97587.50;6244910;23;20012;-96
2023/03/10 04:16:57;;;;;;;2.38;2.17;;;;;;;3.38;100.00;97590.75;6220315;23;20005;-96
2023/03/10 04:19:23;;;;;;;2.92;2.67;;;;;;;3.32;100.00;97581.00;6245834;23;20498;-95
2023/03/10 04:21:48;;;;;;;3.30;3.00;;;;;;;3.37;100.00;97591.69;6221147;23;20005;-95
2023/03/10 04:24:14;;;;;;;3.17;2.88;;;;;;;3.39;100.00;97594.94;6219745;23;20462;-94
2023/03/10 04:26:40;;;;;;;3.13;2.60;;;;;;;3.39;100.00;97600.03;6246210;23;20004;-96
2023/03/10 04:29:09;;;;;;;3.42;3.05;;;;;;;3.38;100.00;97611.13;6220918;23;20205;-95
2023/03/10 04:31:36;;;;;;;3.50;3.20;;;;;;;3.37;100.00;97614.63;6221530;23;20011;-95
2023/03/10 04:34:05;;;;;;;3.47;3.17;;;;;;;3.41;100.00;97626.22;6219922;23;20005;-96
2023/03/10 04:36:31;;;;;;;3.05;2.75;;;;;;;3.41;100.00;97618.59;6223450;23;20066;-96
2023/03/10 04:38:59;;;;;;;3.30;2.60;;;;;;;3.47;100.00;97626.72;6222157;23;20012;-96
2023/03/10 04:41:25;;;;;;;3.00;2.70;;;;;;;3.47;100.00;97644.56;6220897;23;20004;-96
2023/03/10 04:43:56;;;;;;;3.83;3.20;;;;;;;3.50;100.00;97669.81;6221456;23;20016;-96
2023/03/10 04:46:22;;;;;;;4.05;3.65;;;;;;;3.47;100.00;97675.16;6245364;23;20008;-95
2023/03/10 04:48:50;;;;;;;4.80;2.72;;;;;;;3.67;100.00;97712.75;6247491;23;20015;-96
2023/03/10 04:51:16;;;;;;;3.38;3.00;;;;;;;3.45;100.00;97687.19;6223565;23;20454;-96
2023/03/10 04:53:42;;;;;;;3.85;3.10;;;;;;;3.48;100.00;97722.66;6249998;23;20000;-95
2023/03/10 04:56:09;;;;;;;2.88;2.60;;;;;;;3.31;100.00;97711.94;6221055;23;20336;-95
2023/03/10 04:58:35;;;;;;;3.58;2.60;;;;;;;3.19;100.00;97712.81;6221166;23;20008;-96
2023/03/10 05:01:00;;;;;;;2.67;2.42;;;;;;;3.35;100.00;97738.84;6220811;23;20086;-96
2023/03/10 05:03:26;;;;;;;3.58;2.25;;;;;;;3.24;100.00;97730.31;6221077;23;20008;-96
2023/03/10 05:05:52;;;;;;;3.20;2.90;;;;;;;3.13;100.00;97748.94;6221037;23;20009;-95
2023/03/10 05:08:17;;;;;;;3.55;3.08;;;;;;;3.19;100.00;97753.59;6246538;23;20034;-96
2023/03/10 05:10:46;;;;;;;3.30;3.00;;;;;;;3.27;100.00;97776.81;6219966;23;20004;-96
2023/03/10 05:13:14;;;;;;;3.35;3.00;;;;;;;3.20;100.00;97773.06;6224127;23;20005;-96
2023/03/10 05:15:43;;;;;;;2.67;2.47;;;;;;;3.14;100.00;97802.31;6224239;23;20024;-95
2023/03/10 05:18:11;;;;;;;3.10;1.83;;;;;;;3.02;100.00;97781.97;6225386;23;20436;-95
2023/03/10 05:20:38;;;;;;;1.75;1.65;;;;;;;3.03;100.00;97792.06;6250842;23;20024;-95
2023/03/10 05:23:07;;;;;;;1.85;1.73;;;;;;;3.08;100.00;97794.31;6225504;23;20428;-96
2023/03/10 05:25:35;;;;;;;2.00;1.80;;;;;;;2.96;100.00;97795.97;6225428;23;20067;-96
2023/03/10 05:28:02;;;;;;;1.70;1.60;;;;;;;2.97;100.00;97828.16;6227086;23;20005;-96
2023/03/10 05:30:27;;;;;;;1.48;1.35;;;;;;;2.87;100.00;97839.91;6225257;23;20000;-95
2023/03/10 05:32:56;;;;;;;3.17;1.38;;;;;;;3.07;100.00;97897.16;6224210;23;20005;-96
2023/03/10 05:35:23;;;;;;;1.75;1.45;;;;;;;2.78;100.00;97871.91;6227175;23;20093;-95
2023/03/10 05:37:51;;;;;;;2.28;2.08;;;;;;;2.82;100.00;97888.59;6253024;23;20001;-95
2023/03/10 05:40:21;;;;;;;2.78;2.50;;;;;;;2.88;100.00;97934.06;6230430;23;20008;-96
2023/03/10 05:42:50;;;;;;;2.20;1.92;;;;;;;2.72;100.00;97907.97;6251864;23;20059;-96
2023/03/10 05:45:20;;;;;;;3.38;2.72;;;;;;;2.66;100.00;97936.38;6223032;23;20008;-95
2023/03/10 05:47:49;;;;;;;2.97;2.60;;;;;;;2.77;100.00;98000.97;6227945;23;20071;-95
2023/03/10 05:50:16;;;;;;;3.80;3.38;;;;;;;2.42;100.00;97957.44;6228776;23;20001;-96
2023/03/10 05:52:46;;;;;;;2.75;2.55;;;;;;;2.42;100.00;97967.59;6224002;23;20005;-95
2023/03/10 05:55:17;;;;;;;3.10;2.63;;;;;;;2.28;100.00;97972.75;6224834;23;20000;-95
2023/03/10 05:57:51;;;;;;;3.00;2.70;;;;;;;2.36;100.00;97983.25;6223627;23;20004;-96
2023/03/10 06:00:22;;;;;;;2.80;2.50;;;;;;;2.20;100.00;98003.78;6221266;23;20001;-95
2023/03/10 06:03:11;;;;;;;3.28;2.75;;;;;;;2.28;100.00;98031.28;6220383;23;20004;-96
2023/03/10 06:06:08;;;;;;;2.45;2.20;;;;;;;2.12;100.00;98011.88;6221069;23;20024;-96
2023/03/10 06:09:14;;;;;;;;;;;;;;;;;;;;;
2023/03/10 06:12:09;;;;;;;;;;;;;;;;;;;;;
2023/03/10 06:14:48;;;;;;;2.65;2.20;;;;;;;1.89;100.00;98030.28;6223803;23;20036;-96
2023/03/10 06:17:34;;;;;;;2.60;2.13;;;;;;;1.88;100.00;98038.84;6222387;23;20055;-95
2023/03/10 06:20:06;;;;;;;2.63;2.42;;;;;;;1.87;100.00;98057.53;6247884;23;20192;-96
2023/03/10 06:22:56;;;;;;;;;;;;;;;;;;;;;
2023/03/10 06:25:56;;;;;;;3.22;2.83;;;;;;;2.01;100.00;98138.13;6221217;23;20069;-95
2023/03/10 06:28:40;;;;;;;2.25;2.00;;;;;;;1.62;100.00;98109.03;6222005;23;20451;-96
2023/03/10 06:31:28;;;;;;;7.28;2.47;;;;;;;1.78;100.00;98116.56;6197063;23;20032;-96
2023/03/10 06:34:20;;;;;;;2.03;1.83;;;;;;;1.71;100.00;98122.03;6195954;23;20013;-95
2023/03/10 06:37:22;;;;;;;2.30;2.00;;;;;;;1.68;100.00;98140.00;6222029;23;20000;-96
2023/03/10 06:39:53;;;;;;;3.00;2.22;;;;;;;1.84;100.00;98205.25;6196819;23;20019;-95
2023/03/10 06:42:32;;;;;;;1.42;1.30;;;;;;;1.87;100.00;98194.88;6200042;23;20005;-95
2023/03/10 07:01:28;;;;;;;1.35;1.25;;;;;;;1.86;100.00;98249.22;6205866;22;20004;-96
2023/03/10 07:18:55;;;;;;;;;;;;;;;;;;;;;
2023/03/10 07:59:10;;;;;;;1.48;1.38;;;;;;;2.01;100.00;98579.09;6217694;23;20027;-94
2023/03/10 08:01:50;;;;;;;1.10;0.95;;;;;;;2.06;100.00;98597.47;6220633;23;20012;-96
2023/03/10 08:48:54;;;;;;;7.93;1.00;;;;;;;4.12;87.28;98818.25;6218116;22;20023;-94
2023/03/10 09:38:45;;;;;;;1.33;0.82;;;;;;;7.59;70.40;99034.81;6196037;23;20027;-96
2023/03/10 09:41:48;;;;;;;1.70;0.88;;;;;;;7.40;70.79;99037.00;6172067;23;20015;-95
2023/03/10 09:44:33;;;;;;;1.05;0.80;;;;;;;7.78;70.43;99079.78;6171210;23;20032;-94
2023/03/10 09:47:13;;;;;;;0.88;0.77;;;;;;;7.26;72.43;99100.28;6168432;23;20005;-94
2023/03/10 09:49:47;;;;;;;1.55;0.80;;;;;;;6.31;74.48;99115.75;6167648;23;20009;-95
2023/03/10 09:53:09;;;;;;;0.68;0.63;;;;;;;5.51;78.66;99131.50;6168983;23;20028;-94
2023/03/10 09:55:44;;;;;;;2.67;0.77;;;;;;;5.29;79.10;99105.50;6074367;23;20006;-93
2023/03/10 09:58:54;;;;;;;0.50;0.50;;;;;;;5.36;79.14;99147.72;6054756;23;20021;-93
2023/03/10 10:11:45;;;;;;;1.65;0.65;;;;;;;5.49;77.88;99130.78;6155845;23;20017;-96
2023/03/10 10:14:15;;;;;;;1.58;0.80;;;;;;;5.97;76.30;99139.09;6150035;23;20016;-94
2023/03/10 10:17:06;;;;;;;0.50;0.50;;;;;;;5.71;75.03;99122.69;6131808;23;20534;-95
2023/03/10 10:19:38;;;;;;;0.60;0.60;;;;;;;6.47;72.37;99126.72;6156320;23;20002;-95
2023/03/10 10:22:39;;;;;;;0.98;0.60;;;;;;;6.04;73.08;99148.97;6163649;23;20021;-96
2023/03/10 10:25:08;;;;;;;0.53;0.53;;;;;;;6.58;72.63;99198.66;6163501;23;20014;-95
2023/03/10 10:28:15;;;;;;;0.57;0.57;;;;;;;5.65;74.66;99186.19;6140525;23;20687;-96
2023/03/10 11:03:56;;;;;;;;;;;;;;;;;;;;;
2023/03/10 11:06:56;;;;;;;1.75;0.70;;;;;;;6.16;72.55;99301.94;6143102;23;20016;-96
2023/03/10 11:09:57;;;;;;;2.88;0.70;;;;;;;6.07;71.10;99297.34;6140685;23;20037;-96
2023/03/10 11:12:43;;;;;;;2.60;0.80;;;;;;;6.02;71.15;99317.28;6117986;23;20041;-96
2023/03/10 11:16:12;;;;;;;2.22;0.73;;;;;;;5.47;70.93;99314.28;6145569;23;20016;-96
2023/03/10 11:33:46;;;;;;;1.35;0.55;;;;;;;9.31;60.80;99426.88;6201414;23;20017;-95
2023/03/10 11:36:58;;;;;;;1.50;0.65;;;;;;;10.14;57.03;99439.09;6190065;23;20017;-96
2023/03/10 11:40:07;;;;;;;;;;;;;;;;;;;;;
2023/03/10 11:48:44;;;;;;;1.67;1.10;;;;;;;7.11;66.29;99429.72;6211657;22;20038;-96
2023/03/10 11:52:08;;;;;;;2.38;0.73;;;;;;;7.19;66.91;99486.53;6162082;23;20052;-96
2023/03/10 11:55:17;;;;;;;1.48;1.17;;;;;;;6.40;67.57;99454.31;6166702;23;20016;-96
